sensor_id;sensor_type;location;lat;lon;timestamp;temperature;humidity
14924;DHT22;7554;43.600;1.480;2023-08-24T00:00:25;30.90;1.00
14924;DHT22;7554;43.600;1.480;2023-08-24T00:02:53;30.90;1.00
14924;DHT22;7554;43.600;1.480;2023-08-24T00:05:20;30.90;1.00
14924;DHT22;7554;43.600;1.480;2023-08-24T00:07:48;30.90;1.00
14924;DHT22;7554;43.600;1.480;2023-08-24T00:10:15;30.90;1.00
14924;DHT22;7554;43.600;1.480;2023-08-24T00:12:43;30.80;1.00
14924;DHT22;7554;43.600;1.480;2023-08-24T00:15:12;30.80;1.00
14924;DHT22;7554;43.600;1.480;2023-08-24T00:17:39;30.80;1.00
14924;DHT22;7554;43.600;1.480;2023-08-24T00:20:07;30.70;1.00
14924;DHT22;7554;43.600;1.480;2023-08-24T00:22:37;30.70;1.00
14924;DHT22;7554;43.600;1.480;2023-08-24T00:25:06;30.70;1.00
14924;DHT22;7554;43.600;1.480;2023-08-24T00:27:34;30.60;1.00
14924;DHT22;7554;43.600;1.480;2023-08-24T00:30:03;30.60;1.00
14924;DHT22;7554;43.600;1.480;2023-08-24T00:32:34;30.60;1.00
14924;DHT22;7554;43.600;1.480;2023-08-24T00:35:01;30.60;1.00
14924;DHT22;7554;43.600;1.480;2023-08-24T00:37:29;30.60;1.00
14924;DHT22;7554;43.600;1.480;2023-08-24T00:39:59;30.50;1.00
14924;DHT22;7554;43.600;1.480;2023-08-24T00:42:26;30.40;1.00
14924;DHT22;7554;43.600;1.480;2023-08-24T00:44:54;30.40;1.00
14924;DHT22;7554;43.600;1.480;2023-08-24T00:47:21;30.40;1.00
14924;DHT22;7554;43.600;1.480;2023-08-24T00:49:50;30.40;1.00
14924;DHT22;7554;43.600;1.480;2023-08-24T00:52:18;30.30;1.00
14924;DHT22;7554;43.600;1.480;2023-08-24T00:54:46;30.20;1.00
14924;DHT22;7554;43.600;1.480;2023-08-24T00:57:14;30.20;1.00
14924;DHT22;7554;43.600;1.480;2023-08-24T00:59:41;30.10;1.00
14924;DHT22;7554;43.600;1.480;2023-08-24T01:02:08;30.00;1.00
14924;DHT22;7554;43.600;1.480;2023-08-24T01:04:37;30.00;1.00
14924;DHT22;7554;43.600;1.480;2023-08-24T01:07:05;29.90;1.00
14924;DHT22;7554;43.600;1.480;2023-08-24T01:09:35;29.80;1.00
14924;DHT22;7554;43.600;1.480;2023-08-24T01:12:06;29.80;1.00
14924;DHT22;7554;43.600;1.480;2023-08-24T01:14:41;29.80;1.00
14924;DHT22;7554;43.600;1.480;2023-08-24T01:17:15;29.80;1.00
14924;DHT22;7554;43.600;1.480;2023-08-24T01:19:44;29.80;1.00
14924;DHT22;7554;43.600;1.480;2023-08-24T01:22:33;29.70;1.00
14924;DHT22;7554;43.600;1.480;2023-08-24T01:25:06;29.60;1.00
14924;DHT22;7554;43.600;1.480;2023-08-24T01:27:36;29.60;1.00
14924;DHT22;7554;43.600;1.480;2023-08-24T01:30:06;29.60;1.00
14924;DHT22;7554;43.600;1.480;2023-08-24T01:32:35;29.50;1.00
14924;DHT22;7554;43.600;1.480;2023-08-24T01:35:04;29.40;1.00
14924;DHT22;7554;43.600;1.480;2023-08-24T01:37:33;29.30;1.00
14924;DHT22;7554;43.600;1.480;2023-08-24T01:40:05;29.40;1.00
14924;DHT22;7554;43.600;1.480;2023-08-24T01:42:41;29.30;1.00
14924;DHT22;7554;43.600;1.480;2023-08-24T01:45:10;29.30;1.00
14924;DHT22;7554;43.600;1.480;2023-08-24T01:47:41;29.20;1.00
14924;DHT22;7554;43.600;1.480;2023-08-24T01:50:10;29.30;1.00
14924;DHT22;7554;43.600;1.480;2023-08-24T01:52:37;29.30;1.00
14924;DHT22;7554;43.600;1.480;2023-08-24T01:55:06;29.30;1.00
14924;DHT22;7554;43.600;1.480;2023-08-24T01:57:33;29.30;1.00
14924;DHT22;7554;43.600;1.480;2023-08-24T02:00:03;29.20;1.00
14924;DHT22;7554;43.600;1.480;2023-08-24T02:02:32;29.10;1.00
14924;DHT22;7554;43.600;1.480;2023-08-24T02:05:00;29.10;1.00
14924;DHT22;7554;43.600;1.480;2023-08-24T02:07:27;29.10;1.00
14924;DHT22;7554;43.600;1.480;2023-08-24T02:09:54;29.10;1.00
14924;DHT22;7554;43.600;1.480;2023-08-24T02:12:22;29.10;1.00
14924;DHT22;7554;43.600;1.480;2023-08-24T02:14:49;29.00;1.00
14924;DHT22;7554;43.600;1.480;2023-08-24T02:17:18;29.00;1.00
14924;DHT22;7554;43.600;1.480;2023-08-24T02:19:45;29.00;1.00
14924;DHT22;7554;43.600;1.480;2023-08-24T02:22:13;28.90;1.00
14924;DHT22;7554;43.600;1.480;2023-08-24T02:24:40;28.90;1.00
14924;DHT22;7554;43.600;1.480;2023-08-24T02:27:07;28.80;1.00
14924;DHT22;7554;43.600;1.480;2023-08-24T02:29:34;28.80;1.00
14924;DHT22;7554;43.600;1.480;2023-08-24T02:32:03;28.70;1.00
14924;DHT22;7554;43.600;1.480;2023-08-24T02:34:32;28.80;1.00
14924;DHT22;7554;43.600;1.480;2023-08-24T02:36:59;28.80;1.00
14924;DHT22;7554;43.600;1.480;2023-08-24T02:39:26;28.80;1.00
14924;DHT22;7554;43.600;1.480;2023-08-24T02:41:54;28.80;1.00
14924;DHT22;7554;43.600;1.480;2023-08-24T02:44:21;28.70;1.00
14924;DHT22;7554;43.600;1.480;2023-08-24T02:46:49;28.70;1.00
14924;DHT22;7554;43.600;1.480;2023-08-24T02:49:16;28.60;1.00
14924;DHT22;7554;43.600;1.480;2023-08-24T02:51:45;28.50;1.00
14924;DHT22;7554;43.600;1.480;2023-08-24T02:54:12;28.50;1.00
14924;DHT22;7554;43.600;1.480;2023-08-24T02:56:40;28.40;1.00
14924;DHT22;7554;43.600;1.480;2023-08-24T02:59:07;28.30;1.00
14924;DHT22;7554;43.600;1.480;2023-08-24T03:01:34;28.30;1.00
14924;DHT22;7554;43.600;1.480;2023-08-24T03:04:04;28.30;1.00
14924;DHT22;7554;43.600;1.480;2023-08-24T03:06:31;28.40;1.00
14924;DHT22;7554;43.600;1.480;2023-08-24T03:09:01;28.40;1.00
14924;DHT22;7554;43.600;1.480;2023-08-24T03:11:29;28.40;1.00
14924;DHT22;7554;43.600;1.480;2023-08-24T03:13:57;28.40;1.00
14924;DHT22;7554;43.600;1.480;2023-08-24T03:16:24;28.40;1.00
14924;DHT22;7554;43.600;1.480;2023-08-24T03:18:52;28.50;1.00
14924;DHT22;7554;43.600;1.480;2023-08-24T03:21:19;28.50;1.00
14924;DHT22;7554;43.600;1.480;2023-08-24T03:23:46;28.50;1.00
14924;DHT22;7554;43.600;1.480;2023-08-24T03:26:15;28.30;1.00
14924;DHT22;7554;43.600;1.480;2023-08-24T03:28:42;28.30;1.00
14924;DHT22;7554;43.600;1.480;2023-08-24T03:31:10;28.40;1.00
14924;DHT22;7554;43.600;1.480;2023-08-24T03:33:37;28.40;1.00
14924;DHT22;7554;43.600;1.480;2023-08-24T03:36:04;28.30;1.00
14924;DHT22;7554;43.600;1.480;2023-08-24T03:38:32;28.30;1.00
14924;DHT22;7554;43.600;1.480;2023-08-24T03:41:03;28.20;1.00
14924;DHT22;7554;43.600;1.480;2023-08-24T03:43:34;28.20;1.00
14924;DHT22;7554;43.600;1.480;2023-08-24T03:46:01;28.20;1.00
14924;DHT22;7554;43.600;1.480;2023-08-24T03:48:29;28.20;1.00
14924;DHT22;7554;43.600;1.480;2023-08-24T03:50:57;28.00;1.00
14924;DHT22;7554;43.600;1.480;2023-08-24T03:53:25;28.00;1.00
14924;DHT22;7554;43.600;1.480;2023-08-24T03:55:53;28.00;1.00
14924;DHT22;7554;43.600;1.480;2023-08-24T03:58:21;28.00;1.00
14924;DHT22;7554;43.600;1.480;2023-08-24T04:00:49;27.90;1.00
14924;DHT22;7554;43.600;1.480;2023-08-24T04:03:17;28.00;1.00
14924;DHT22;7554;43.600;1.480;2023-08-24T04:05:44;27.90;1.00
14924;DHT22;7554;43.600;1.480;2023-08-24T04:08:11;27.90;1.00
14924;DHT22;7554;43.600;1.480;2023-08-24T04:10:39;27.90;1.00
14924;DHT22;7554;43.600;1.480;2023-08-24T04:13:06;27.90;1.00
14924;DHT22;7554;43.600;1.480;2023-08-24T04:15:33;27.80;1.00
14924;DHT22;7554;43.600;1.480;2023-08-24T04:18:02;27.70;1.00
14924;DHT22;7554;43.600;1.480;2023-08-24T04:20:30;27.70;1.00
14924;DHT22;7554;43.600;1.480;2023-08-24T04:22:57;27.70;1.00
14924;DHT22;7554;43.600;1.480;2023-08-24T04:25:24;27.70;1.00
14924;DHT22;7554;43.600;1.480;2023-08-24T04:27:51;27.70;1.00
14924;DHT22;7554;43.600;1.480;2023-08-24T04:30:20;27.70;1.00
14924;DHT22;7554;43.600;1.480;2023-08-24T04:32:47;27.80;1.00
14924;DHT22;7554;43.600;1.480;2023-08-24T04:35:16;27.80;1.00
14924;DHT22;7554;43.600;1.480;2023-08-24T04:37:43;27.60;1.00
14924;DHT22;7554;43.600;1.480;2023-08-24T04:40:11;27.70;1.00
14924;DHT22;7554;43.600;1.480;2023-08-24T04:42:38;27.70;1.00
14924;DHT22;7554;43.600;1.480;2023-08-24T04:45:06;27.70;1.00
14924;DHT22;7554;43.600;1.480;2023-08-24T04:47:35;27.70;1.00
14924;DHT22;7554;43.600;1.480;2023-08-24T04:50:02;27.70;1.00
14924;DHT22;7554;43.600;1.480;2023-08-24T04:52:32;27.60;1.00
14924;DHT22;7554;43.600;1.480;2023-08-24T04:55:00;27.50;1.00
14924;DHT22;7554;43.600;1.480;2023-08-24T04:57:29;27.50;1.00
14924;DHT22;7554;43.600;1.480;2023-08-24T04:59:56;27.50;1.00
14924;DHT22;7554;43.600;1.480;2023-08-24T05:02:23;27.60;1.00
14924;DHT22;7554;43.600;1.480;2023-08-24T05:04:51;27.40;1.00
14924;DHT22;7554;43.600;1.480;2023-08-24T05:07:18;27.30;1.00
14924;DHT22;7554;43.600;1.480;2023-08-24T05:09:47;27.30;1.00
14924;DHT22;7554;43.600;1.480;2023-08-24T05:12:14;27.10;1.00
14924;DHT22;7554;43.600;1.480;2023-08-24T05:14:41;27.20;1.00
14924;DHT22;7554;43.600;1.480;2023-08-24T05:17:08;27.20;1.00
14924;DHT22;7554;43.600;1.480;2023-08-24T05:19:36;27.50;1.00
14924;DHT22;7554;43.600;1.480;2023-08-24T05:22:03;27.60;1.00
14924;DHT22;7554;43.600;1.480;2023-08-24T05:24:30;27.70;1.00
14924;DHT22;7554;43.600;1.480;2023-08-24T05:26:59;27.70;1.00
14924;DHT22;7554;43.600;1.480;2023-08-24T05:29:26;28.00;1.00
14924;DHT22;7554;43.600;1.480;2023-08-24T05:31:53;28.20;1.00
14924;DHT22;7554;43.600;1.480;2023-08-24T05:34:21;28.40;1.00
14924;DHT22;7554;43.600;1.480;2023-08-24T05:36:48;28.50;1.00
14924;DHT22;7554;43.600;1.480;2023-08-24T05:39:15;28.60;1.00
14924;DHT22;7554;43.600;1.480;2023-08-24T05:41:43;28.80;1.00
14924;DHT22;7554;43.600;1.480;2023-08-24T05:44:11;29.10;1.00
14924;DHT22;7554;43.600;1.480;2023-08-24T05:46:39;29.20;1.00
14924;DHT22;7554;43.600;1.480;2023-08-24T05:49:06;29.50;1.00
14924;DHT22;7554;43.600;1.480;2023-08-24T05:51:33;29.90;1.00
14924;DHT22;7554;43.600;1.480;2023-08-24T05:54:00;30.70;1.00
14924;DHT22;7554;43.600;1.480;2023-08-24T05:56:28;31.00;1.00
14924;DHT22;7554;43.600;1.480;2023-08-24T05:58:56;31.60;1.00
14924;DHT22;7554;43.600;1.480;2023-08-24T06:01:25;32.30;1.00
14924;DHT22;7554;43.600;1.480;2023-08-24T06:03:53;32.90;1.00
14924;DHT22;7554;43.600;1.480;2023-08-24T06:06:20;33.40;1.00
14924;DHT22;7554;43.600;1.480;2023-08-24T06:08:47;33.60;1.00
14924;DHT22;7554;43.600;1.480;2023-08-24T06:11:15;33.80;1.00
14924;DHT22;7554;43.600;1.480;2023-08-24T06:13:42;34.20;1.00
14924;DHT22;7554;43.600;1.480;2023-08-24T06:16:09;34.60;1.00
14924;DHT22;7554;43.600;1.480;2023-08-24T06:18:38;34.50;1.00
14924;DHT22;7554;43.600;1.480;2023-08-24T06:21:05;35.10;1.00
14924;DHT22;7554;43.600;1.480;2023-08-24T06:23:34;35.30;1.00
14924;DHT22;7554;43.600;1.480;2023-08-24T06:26:01;36.20;1.00
14924;DHT22;7554;43.600;1.480;2023-08-24T06:28:30;36.60;1.00
14924;DHT22;7554;43.600;1.480;2023-08-24T06:30:59;36.60;1.00
14924;DHT22;7554;43.600;1.480;2023-08-24T06:33:27;37.00;1.00
14924;DHT22;7554;43.600;1.480;2023-08-24T06:35:57;36.70;1.00
14924;DHT22;7554;43.600;1.480;2023-08-24T06:38:24;37.30;1.00
14924;DHT22;7554;43.600;1.480;2023-08-24T06:40:52;37.70;1.00
14924;DHT22;7554;43.600;1.480;2023-08-24T06:43:20;36.90;1.00
14924;DHT22;7554;43.600;1.480;2023-08-24T06:45:47;37.60;1.00
14924;DHT22;7554;43.600;1.480;2023-08-24T06:48:14;37.60;1.00
14924;DHT22;7554;43.600;1.480;2023-08-24T06:50:42;38.20;1.00
14924;DHT22;7554;43.600;1.480;2023-08-24T06:53:10;38.10;1.00
14924;DHT22;7554;43.600;1.480;2023-08-24T06:55:38;38.40;1.00
14924;DHT22;7554;43.600;1.480;2023-08-24T06:58:05;39.60;1.00
14924;DHT22;7554;43.600;1.480;2023-08-24T07:00:32;40.50;1.00
14924;DHT22;7554;43.600;1.480;2023-08-24T07:03:01;40.30;1.00
14924;DHT22;7554;43.600;1.480;2023-08-24T07:05:28;41.20;1.00
14924;DHT22;7554;43.600;1.480;2023-08-24T07:07:56;41.50;1.00
14924;DHT22;7554;43.600;1.480;2023-08-24T07:10:24;41.70;1.00
14924;DHT22;7554;43.600;1.480;2023-08-24T07:12:52;42.40;1.00
14924;DHT22;7554;43.600;1.480;2023-08-24T07:15:19;42.00;1.00
14924;DHT22;7554;43.600;1.480;2023-08-24T07:17:46;42.90;1.00
14924;DHT22;7554;43.600;1.480;2023-08-24T07:20:14;43.40;1.00
14924;DHT22;7554;43.600;1.480;2023-08-24T07:22:41;43.70;1.00
14924;DHT22;7554;43.600;1.480;2023-08-24T07:25:09;44.00;1.00
14924;DHT22;7554;43.600;1.480;2023-08-24T07:27:38;43.60;1.00
14924;DHT22;7554;43.600;1.480;2023-08-24T07:30:07;43.00;1.00
14924;DHT22;7554;43.600;1.480;2023-08-24T07:32:35;42.90;1.00
14924;DHT22;7554;43.600;1.480;2023-08-24T07:35:03;42.60;1.00
14924;DHT22;7554;43.600;1.480;2023-08-24T07:37:32;42.70;1.00
14924;DHT22;7554;43.600;1.480;2023-08-24T07:39:59;42.00;1.00
14924;DHT22;7554;43.600;1.480;2023-08-24T07:42:27;40.80;1.00
14924;DHT22;7554;43.600;1.480;2023-08-24T07:44:55;42.20;1.00
14924;DHT22;7554;43.600;1.480;2023-08-24T07:47:23;41.70;1.00
14924;DHT22;7554;43.600;1.480;2023-08-24T07:49:50;42.20;1.00
14924;DHT22;7554;43.600;1.480;2023-08-24T07:52:17;41.50;1.00
14924;DHT22;7554;43.600;1.480;2023-08-24T07:54:47;41.00;1.00
14924;DHT22;7554;43.600;1.480;2023-08-24T07:57:14;41.20;1.00
14924;DHT22;7554;43.600;1.480;2023-08-24T07:59:42;42.20;1.00
14924;DHT22;7554;43.600;1.480;2023-08-24T08:02:11;41.00;1.00
14924;DHT22;7554;43.600;1.480;2023-08-24T08:04:41;42.70;1.00
14924;DHT22;7554;43.600;1.480;2023-08-24T08:07:08;43.50;1.00
14924;DHT22;7554;43.600;1.480;2023-08-24T08:09:36;43.50;1.00
14924;DHT22;7554;43.600;1.480;2023-08-24T08:12:04;41.50;1.00
14924;DHT22;7554;43.600;1.480;2023-08-24T08:14:31;42.50;1.00
14924;DHT22;7554;43.600;1.480;2023-08-24T08:16:59;42.80;1.00
14924;DHT22;7554;43.600;1.480;2023-08-24T08:19:28;40.80;1.00
14924;DHT22;7554;43.600;1.480;2023-08-24T08:21:55;41.30;1.00
14924;DHT22;7554;43.600;1.480;2023-08-24T08:24:22;40.40;1.00
14924;DHT22;7554;43.600;1.480;2023-08-24T08:26:50;41.00;1.00
14924;DHT22;7554;43.600;1.480;2023-08-24T08:29:17;41.40;1.00
14924;DHT22;7554;43.600;1.480;2023-08-24T08:31:44;40.90;1.00
14924;DHT22;7554;43.600;1.480;2023-08-24T08:34:12;40.40;1.00
14924;DHT22;7554;43.600;1.480;2023-08-24T08:36:41;41.20;1.00
14924;DHT22;7554;43.600;1.480;2023-08-24T08:39:08;41.40;1.00
14924;DHT22;7554;43.600;1.480;2023-08-24T08:41:40;40.80;1.00
14924;DHT22;7554;43.600;1.480;2023-08-24T08:44:11;42.20;1.00
14924;DHT22;7554;43.600;1.480;2023-08-24T08:46:41;40.60;1.00
14924;DHT22;7554;43.600;1.480;2023-08-24T08:49:09;41.20;1.00
14924;DHT22;7554;43.600;1.480;2023-08-24T08:51:37;43.00;1.00
14924;DHT22;7554;43.600;1.480;2023-08-24T08:54:06;44.70;1.00
14924;DHT22;7554;43.600;1.480;2023-08-24T08:56:33;43.90;1.00
14924;DHT22;7554;43.600;1.480;2023-08-24T08:59:02;43.80;1.00
14924;DHT22;7554;43.600;1.480;2023-08-24T09:01:32;44.90;1.00
14924;DHT22;7554;43.600;1.480;2023-08-24T09:03:59;45.30;1.00
14924;DHT22;7554;43.600;1.480;2023-08-24T09:06:27;43.70;1.00
14924;DHT22;7554;43.600;1.480;2023-08-24T09:08:55;42.80;1.00
14924;DHT22;7554;43.600;1.480;2023-08-24T09:11:24;42.20;1.00
14924;DHT22;7554;43.600;1.480;2023-08-24T09:13:52;42.20;1.00
14924;DHT22;7554;43.600;1.480;2023-08-24T09:16:20;41.40;1.00
14924;DHT22;7554;43.600;1.480;2023-08-24T09:18:47;42.20;1.00
14924;DHT22;7554;43.600;1.480;2023-08-24T09:21:15;41.20;1.00
14924;DHT22;7554;43.600;1.480;2023-08-24T09:23:53;41.90;1.00
14924;DHT22;7554;43.600;1.480;2023-08-24T09:26:28;40.40;1.00
14924;DHT22;7554;43.600;1.480;2023-08-24T09:28:56;39.50;1.00
14924;DHT22;7554;43.600;1.480;2023-08-24T09:31:35;38.40;1.00
14924;DHT22;7554;43.600;1.480;2023-08-24T09:34:03;38.70;1.00
14924;DHT22;7554;43.600;1.480;2023-08-24T09:36:32;38.40;1.00
14924;DHT22;7554;43.600;1.480;2023-08-24T09:38:59;37.40;1.00
14924;DHT22;7554;43.600;1.480;2023-08-24T09:41:38;36.70;1.00
14924;DHT22;7554;43.600;1.480;2023-08-24T09:44:06;36.20;1.00
14924;DHT22;7554;43.600;1.480;2023-08-24T09:46:35;36.30;1.00
14924;DHT22;7554;43.600;1.480;2023-08-24T09:49:05;37.50;1.00
14924;DHT22;7554;43.600;1.480;2023-08-24T09:51:33;37.30;1.00
14924;DHT22;7554;43.600;1.480;2023-08-24T09:54:04;36.70;1.00
14924;DHT22;7554;43.600;1.480;2023-08-24T09:56:36;36.80;1.00
14924;DHT22;7554;43.600;1.480;2023-08-24T09:59:11;37.50;1.00
14924;DHT22;7554;43.600;1.480;2023-08-24T10:01:44;37.50;1.00
14924;DHT22;7554;43.600;1.480;2023-08-24T10:04:14;37.40;1.00
14924;DHT22;7554;43.600;1.480;2023-08-24T10:06:44;37.20;1.00
14924;DHT22;7554;43.600;1.480;2023-08-24T10:09:19;37.30;1.00
14924;DHT22;7554;43.600;1.480;2023-08-24T10:11:51;37.10;1.00
14924;DHT22;7554;43.600;1.480;2023-08-24T10:14:25;37.40;1.00
14924;DHT22;7554;43.600;1.480;2023-08-24T10:16:54;37.70;1.00
14924;DHT22;7554;43.600;1.480;2023-08-24T10:19:22;37.50;1.00
14924;DHT22;7554;43.600;1.480;2023-08-24T10:21:51;38.00;1.00
14924;DHT22;7554;43.600;1.480;2023-08-24T10:24:23;38.00;1.00
14924;DHT22;7554;43.600;1.480;2023-08-24T10:26:51;37.30;1.00
14924;DHT22;7554;43.600;1.480;2023-08-24T10:29:21;37.50;1.00
14924;DHT22;7554;43.600;1.480;2023-08-24T10:31:49;37.40;1.00
14924;DHT22;7554;43.600;1.480;2023-08-24T10:34:17;37.00;1.00
14924;DHT22;7554;43.600;1.480;2023-08-24T10:36:48;36.60;1.00
14924;DHT22;7554;43.600;1.480;2023-08-24T10:39:15;37.10;1.00
14924;DHT22;7554;43.600;1.480;2023-08-24T10:41:50;37.10;1.00
14924;DHT22;7554;43.600;1.480;2023-08-24T10:44:23;37.50;1.00
14924;DHT22;7554;43.600;1.480;2023-08-24T10:47:13;37.70;1.00
14924;DHT22;7554;43.600;1.480;2023-08-24T10:49:41;37.60;1.00
14924;DHT22;7554;43.600;1.480;2023-08-24T10:52:21;37.50;1.00
14924;DHT22;7554;43.600;1.480;2023-08-24T10:54:50;37.50;1.00
14924;DHT22;7554;43.600;1.480;2023-08-24T10:57:18;37.50;1.00
14924;DHT22;7554;43.600;1.480;2023-08-24T10:59:57;37.70;1.00
14924;DHT22;7554;43.600;1.480;2023-08-24T11:02:26;37.60;1.00
14924;DHT22;7554;43.600;1.480;2023-08-24T11:05:06;37.10;1.00
14924;DHT22;7554;43.600;1.480;2023-08-24T11:07:34;36.80;1.00
14924;DHT22;7554;43.600;1.480;2023-08-24T11:10:11;37.10;1.00
14924;DHT22;7554;43.600;1.480;2023-08-24T11:13:04;37.40;1.00
14924;DHT22;7554;43.600;1.480;2023-08-24T11:15:36;37.00;1.00
14924;DHT22;7554;43.600;1.480;2023-08-24T11:18:23;37.20;1.00
14924;DHT22;7554;43.600;1.480;2023-08-24T11:20:52;37.30;1.00
14924;DHT22;7554;43.600;1.480;2023-08-24T11:23:20;37.70;1.00
14924;DHT22;7554;43.600;1.480;2023-08-24T11:25:50;37.80;1.00
14924;DHT22;7554;43.600;1.480;2023-08-24T11:28:21;37.60;1.00
14924;DHT22;7554;43.600;1.480;2023-08-24T11:30:50;37.20;1.00
14924;DHT22;7554;43.600;1.480;2023-08-24T11:33:27;37.30;1.00
14924;DHT22;7554;43.600;1.480;2023-08-24T11:35:55;37.50;1.00
14924;DHT22;7554;43.600;1.480;2023-08-24T11:38:22;37.30;1.00
14924;DHT22;7554;43.600;1.480;2023-08-24T11:40:50;37.40;1.00
14924;DHT22;7554;43.600;1.480;2023-08-24T11:43:24;37.10;1.00
14924;DHT22;7554;43.600;1.480;2023-08-24T11:45:53;36.90;1.00
14924;DHT22;7554;43.600;1.480;2023-08-24T11:48:24;37.20;1.00
14924;DHT22;7554;43.600;1.480;2023-08-24T11:50:54;37.40;1.00
14924;DHT22;7554;43.600;1.480;2023-08-24T11:53:22;37.60;1.00
14924;DHT22;7554;43.600;1.480;2023-08-24T11:55:52;37.80;1.00
14924;DHT22;7554;43.600;1.480;2023-08-24T11:58:19;38.00;1.00
14924;DHT22;7554;43.600;1.480;2023-08-24T12:00:47;38.20;1.00
14924;DHT22;7554;43.600;1.480;2023-08-24T12:03:16;38.10;1.00
14924;DHT22;7554;43.600;1.480;2023-08-24T12:05:43;37.70;1.00
14924;DHT22;7554;43.600;1.480;2023-08-24T12:08:11;37.60;1.00
14924;DHT22;7554;43.600;1.480;2023-08-24T12:10:42;37.70;1.00
14924;DHT22;7554;43.600;1.480;2023-08-24T12:13:11;37.90;1.00
14924;DHT22;7554;43.600;1.480;2023-08-24T12:15:40;37.70;1.00
14924;DHT22;7554;43.600;1.480;2023-08-24T12:18:09;37.60;1.00
14924;DHT22;7554;43.600;1.480;2023-08-24T12:20:38;37.70;1.00
14924;DHT22;7554;43.600;1.480;2023-08-24T12:23:06;37.70;1.00
14924;DHT22;7554;43.600;1.480;2023-08-24T12:25:36;37.60;1.00
14924;DHT22;7554;43.600;1.480;2023-08-24T12:28:11;37.60;1.00
14924;DHT22;7554;43.600;1.480;2023-08-24T12:30:48;37.90;1.00
14924;DHT22;7554;43.600;1.480;2023-08-24T12:33:26;38.00;1.00
14924;DHT22;7554;43.600;1.480;2023-08-24T12:35:55;38.10;1.00
14924;DHT22;7554;43.600;1.480;2023-08-24T12:38:25;38.10;1.00
14924;DHT22;7554;43.600;1.480;2023-08-24T12:40:52;38.10;1.00
14924;DHT22;7554;43.600;1.480;2023-08-24T12:43:20;38.10;1.00
14924;DHT22;7554;43.600;1.480;2023-08-24T12:45:48;38.20;1.00
14924;DHT22;7554;43.600;1.480;2023-08-24T12:48:15;38.30;1.00
14924;DHT22;7554;43.600;1.480;2023-08-24T12:50:42;38.20;1.00
14924;DHT22;7554;43.600;1.480;2023-08-24T12:53:11;38.10;1.00
14924;DHT22;7554;43.600;1.480;2023-08-24T12:55:39;38.20;1.00
14924;DHT22;7554;43.600;1.480;2023-08-24T12:58:07;38.10;1.00
14924;DHT22;7554;43.600;1.480;2023-08-24T13:00:34;38.20;1.00
14924;DHT22;7554;43.600;1.480;2023-08-24T13:03:02;38.30;1.00
14924;DHT22;7554;43.600;1.480;2023-08-24T13:05:29;38.40;1.00
14924;DHT22;7554;43.600;1.480;2023-08-24T13:07:57;38.40;1.00
14924;DHT22;7554;43.600;1.480;2023-08-24T13:10:25;38.40;1.00
14924;DHT22;7554;43.600;1.480;2023-08-24T13:12:53;38.30;1.00
14924;DHT22;7554;43.600;1.480;2023-08-24T13:15:22;38.20;1.00
14924;DHT22;7554;43.600;1.480;2023-08-24T13:17:49;38.20;1.00
14924;DHT22;7554;43.600;1.480;2023-08-24T13:20:17;38.10;1.00
14924;DHT22;7554;43.600;1.480;2023-08-24T13:22:44;38.20;1.00
14924;DHT22;7554;43.600;1.480;2023-08-24T13:25:11;38.30;1.00
14924;DHT22;7554;43.600;1.480;2023-08-24T13:27:40;38.40;1.00
14924;DHT22;7554;43.600;1.480;2023-08-24T13:30:08;38.40;1.00
14924;DHT22;7554;43.600;1.480;2023-08-24T13:32:35;38.40;1.00
14924;DHT22;7554;43.600;1.480;2023-08-24T13:35:03;38.40;1.00
14924;DHT22;7554;43.600;1.480;2023-08-24T13:37:30;38.40;1.00
14924;DHT22;7554;43.600;1.480;2023-08-24T13:39:58;38.50;1.00
14924;DHT22;7554;43.600;1.480;2023-08-24T13:42:25;38.50;1.00
14924;DHT22;7554;43.600;1.480;2023-08-24T13:44:54;38.50;1.00
14924;DHT22;7554;43.600;1.480;2023-08-24T13:47:21;38.50;1.00
14924;DHT22;7554;43.600;1.480;2023-08-24T13:49:49;38.50;1.00
14924;DHT22;7554;43.600;1.480;2023-08-24T13:52:16;38.50;1.00
14924;DHT22;7554;43.600;1.480;2023-08-24T13:54:45;38.50;1.00
14924;DHT22;7554;43.600;1.480;2023-08-24T13:57:13;38.50;1.00
14924;DHT22;7554;43.600;1.480;2023-08-24T13:59:41;38.50;1.00
14924;DHT22;7554;43.600;1.480;2023-08-24T14:02:09;38.50;1.00
14924;DHT22;7554;43.600;1.480;2023-08-24T14:04:37;38.60;1.00
14924;DHT22;7554;43.600;1.480;2023-08-24T14:07:04;38.60;1.00
14924;DHT22;7554;43.600;1.480;2023-08-24T14:09:32;38.60;1.00
14924;DHT22;7554;43.600;1.480;2023-08-24T14:11:59;38.60;1.00
14924;DHT22;7554;43.600;1.480;2023-08-24T14:14:27;38.60;1.00
14924;DHT22;7554;43.600;1.480;2023-08-24T14:16:55;38.60;1.00
14924;DHT22;7554;43.600;1.480;2023-08-24T14:19:24;38.70;1.00
14924;DHT22;7554;43.600;1.480;2023-08-24T14:21:52;38.70;1.00
14924;DHT22;7554;43.600;1.480;2023-08-24T14:24:19;38.70;1.00
14924;DHT22;7554;43.600;1.480;2023-08-24T14:26:47;38.70;1.00
14924;DHT22;7554;43.600;1.480;2023-08-24T14:29:14;38.70;1.00
14924;DHT22;7554;43.600;1.480;2023-08-24T14:31:41;38.70;1.00
14924;DHT22;7554;43.600;1.480;2023-08-24T14:34:09;38.80;1.00
14924;DHT22;7554;43.600;1.480;2023-08-24T14:36:38;38.90;1.00
14924;DHT22;7554;43.600;1.480;2023-08-24T14:39:05;38.90;1.00
14924;DHT22;7554;43.600;1.480;2023-08-24T14:41:33;38.90;1.00
14924;DHT22;7554;43.600;1.480;2023-08-24T14:44:00;38.80;1.00
14924;DHT22;7554;43.600;1.480;2023-08-24T14:46:27;38.70;1.00
14924;DHT22;7554;43.600;1.480;2023-08-24T14:48:55;38.80;1.00
14924;DHT22;7554;43.600;1.480;2023-08-24T14:51:22;38.80;1.00
14924;DHT22;7554;43.600;1.480;2023-08-24T14:53:51;38.90;1.00
14924;DHT22;7554;43.600;1.480;2023-08-24T14:56:18;39.00;1.00
14924;DHT22;7554;43.600;1.480;2023-08-24T14:58:45;38.90;1.00
14924;DHT22;7554;43.600;1.480;2023-08-24T15:01:13;39.00;1.00
14924;DHT22;7554;43.600;1.480;2023-08-24T15:03:41;38.80;1.00
14924;DHT22;7554;43.600;1.480;2023-08-24T15:06:08;38.70;1.00
14924;DHT22;7554;43.600;1.480;2023-08-24T15:08:35;38.70;1.00
14924;DHT22;7554;43.600;1.480;2023-08-24T15:11:05;38.60;1.00
14924;DHT22;7554;43.600;1.480;2023-08-24T15:13:32;38.60;1.00
14924;DHT22;7554;43.600;1.480;2023-08-24T15:16:00;38.60;1.00
14924;DHT22;7554;43.600;1.480;2023-08-24T15:18:27;38.70;1.00
14924;DHT22;7554;43.600;1.480;2023-08-24T15:20:54;38.80;1.00
14924;DHT22;7554;43.600;1.480;2023-08-24T15:23:23;38.90;1.00
14924;DHT22;7554;43.600;1.480;2023-08-24T15:25:51;38.90;1.00
14924;DHT22;7554;43.600;1.480;2023-08-24T15:28:20;38.90;1.00
14924;DHT22;7554;43.600;1.480;2023-08-24T15:30:48;38.90;1.00
14924;DHT22;7554;43.600;1.480;2023-08-24T15:33:15;38.90;1.00
14924;DHT22;7554;43.600;1.480;2023-08-24T15:35:43;38.90;1.00
14924;DHT22;7554;43.600;1.480;2023-08-24T15:38:11;38.90;1.00
14924;DHT22;7554;43.600;1.480;2023-08-24T15:40:38;38.90;1.00
14924;DHT22;7554;43.600;1.480;2023-08-24T15:43:06;39.00;1.00
14924;DHT22;7554;43.600;1.480;2023-08-24T15:45:35;38.90;1.00
14924;DHT22;7554;43.600;1.480;2023-08-24T15:48:03;38.80;1.00
14924;DHT22;7554;43.600;1.480;2023-08-24T15:50:31;38.70;1.00
14924;DHT22;7554;43.600;1.480;2023-08-24T15:52:58;38.80;1.00
14924;DHT22;7554;43.600;1.480;2023-08-24T15:55:28;38.70;1.00
14924;DHT22;7554;43.600;1.480;2023-08-24T15:57:58;38.70;1.00
14924;DHT22;7554;43.600;1.480;2023-08-24T16:00:26;38.70;1.00
14924;DHT22;7554;43.600;1.480;2023-08-24T16:02:55;38.60;1.00
14924;DHT22;7554;43.600;1.480;2023-08-24T16:05:23;38.40;1.00
14924;DHT22;7554;43.600;1.480;2023-08-24T16:07:51;38.30;1.00
14924;DHT22;7554;43.600;1.480;2023-08-24T16:10:19;38.30;1.00